createdAt,value
2022-12-11T00:01:13.369Z,9.32
2022-12-11T00:04:02.540Z,8.38
2022-12-11T00:06:50.587Z,7.95
2022-12-11T00:09:37.988Z,8.82
2022-12-11T00:12:27.659Z,8.45
2022-12-11T00:15:14.613Z,7.75
2022-12-11T00:18:01.646Z,8.27
2022-12-11T00:20:50.753Z,8.50
2022-12-11T00:23:40.810Z,8.70
2022-12-11T00:26:27.592Z,8.45
2022-12-11T00:29:14.944Z,8.18
2022-12-11T00:32:01.970Z,8.65
2022-12-11T00:34:48.820Z,7.93
2022-12-11T00:37:35.999Z,8.60
2022-12-11T00:40:25.572Z,8.55
2022-12-11T00:43:12.748Z,7.88
2022-12-11T00:45:59.631Z,8.52
2022-12-11T00:48:46.718Z,8.35
2022-12-11T00:51:33.660Z,8.30
2022-12-11T00:54:20.528Z,8.35
2022-12-11T00:57:07.322Z,7.68
2022-12-11T00:59:57.083Z,7.80
2022-12-11T01:02:43.994Z,7.95
2022-12-11T01:05:30.884Z,8.25
2022-12-11T01:08:22.454Z,8.07
2022-12-11T01:11:14.067Z,8.23
2022-12-11T01:14:01.077Z,7.80
2022-12-11T01:16:48.075Z,8.07
2022-12-11T01:19:34.946Z,7.57
2022-12-11T01:22:22.146Z,7.53
2022-12-11T01:25:10.486Z,8.05
2022-12-11T01:27:57.651Z,7.95
2022-12-11T01:30:46.183Z,7.88
2022-12-11T01:34:02.762Z,7.18
2022-12-11T01:36:52.262Z,7.28
2022-12-11T01:39:39.454Z,7.80
2022-12-11T01:42:26.498Z,8.07
2022-12-11T01:45:27.081Z,7.07
2022-12-11T01:48:23.117Z,7.97
2022-12-11T01:51:10.088Z,7.65
2022-12-11T01:54:01.379Z,7.13
2022-12-11T01:56:50.386Z,7.68
2022-12-11T01:59:39.546Z,8.05
2022-12-11T02:02:28.546Z,7.75
2022-12-11T02:05:15.526Z,7.53
2022-12-11T02:08:03.388Z,7.68
2022-12-11T02:11:10.952Z,7.35
2022-12-11T02:14:08.465Z,7.90
2022-12-11T02:17:07.850Z,7.38
2022-12-11T02:20:05.873Z,7.10
2022-12-11T02:23:30.401Z,8.65
2022-12-11T02:26:17.169Z,7.90
2022-12-11T02:29:09.375Z,7.57
2022-12-11T02:32:05.777Z,7.10
2022-12-11T02:35:01.470Z,7.10
2022-12-11T02:37:52.569Z,7.22
2022-12-11T02:40:41.104Z,7.28
2022-12-11T02:43:30.797Z,7.28
2022-12-11T02:46:22.322Z,8.02
2022-12-11T02:49:13.221Z,7.60
2022-12-11T02:52:01.679Z,7.97
2022-12-11T02:54:49.760Z,6.85
2022-12-11T02:57:44.535Z,7.25
2022-12-11T03:00:31.823Z,7.70
2022-12-11T03:03:18.792Z,8.55
2022-12-11T03:06:06.170Z,8.05
2022-12-11T03:08:55.140Z,7.00
2022-12-11T03:11:42.104Z,8.00
2022-12-11T03:14:28.923Z,7.63
2022-12-11T03:17:37.972Z,8.10
2022-12-11T03:20:37.024Z,7.45
2022-12-11T03:23:31.215Z,7.10
2022-12-11T03:26:19.629Z,7.22
2022-12-11T03:29:20.416Z,7.60
2022-12-11T03:32:20.370Z,7.63
2022-12-11T03:35:13.917Z,6.78
2022-12-11T03:38:05.669Z,7.47
2022-12-11T03:40:55.261Z,6.40
2022-12-11T03:43:42.241Z,7.07
2022-12-11T03:46:34.711Z,7.10
2022-12-11T03:49:24.753Z,7.07
2022-12-11T03:52:13.102Z,7.28
2022-12-11T03:55:03.803Z,6.37
2022-12-11T03:57:50.684Z,6.93
2022-12-11T04:00:40.448Z,6.82
2022-12-11T04:03:27.318Z,6.95
2022-12-11T04:06:14.212Z,7.55
2022-12-11T04:09:01.244Z,6.88
2022-12-11T04:11:48.045Z,7.15
2022-12-11T04:14:58.804Z,6.88
2022-12-11T04:18:04.179Z,7.00
2022-12-11T04:21:12.552Z,6.85
2022-12-11T04:24:17.649Z,6.72
2022-12-11T04:27:04.534Z,6.65
2022-12-11T04:29:51.437Z,7.45
2022-12-11T04:32:38.440Z,6.95
2022-12-11T04:35:25.406Z,7.55
2022-12-11T04:38:12.179Z,7.45
2022-12-11T04:41:05.061Z,7.63
2022-12-11T04:43:51.992Z,6.85
2022-12-11T04:46:38.901Z,6.47
2022-12-11T04:49:25.907Z,6.82
2022-12-11T04:52:15.092Z,7.25
2022-12-11T04:55:04.441Z,6.82
2022-12-11T05:00:43.318Z,6.85
2022-12-11T05:03:30.140Z,7.90
2022-12-11T05:06:19.256Z,7.18
2022-12-11T05:09:06.095Z,6.82
2022-12-11T05:11:53.394Z,7.00
2022-12-11T05:14:40.330Z,6.95
2022-12-11T05:17:38.903Z,7.65
2022-12-11T05:20:25.743Z,7.07
2022-12-11T05:23:12.714Z,7.55
2022-12-11T05:26:04.165Z,6.93
2022-12-11T05:28:55.115Z,7.50
2022-12-11T05:31:41.975Z,7.20
2022-12-11T05:34:28.873Z,6.60
2022-12-11T05:37:15.706Z,7.50
2022-12-11T05:40:02.583Z,7.70
2022-12-11T05:42:58.381Z,7.15
2022-12-11T05:45:45.148Z,7.30
2022-12-11T05:48:31.962Z,6.85
2022-12-11T05:51:19.010Z,7.30
2022-12-11T05:54:08.862Z,7.05
2022-12-11T05:56:58.114Z,6.55
2022-12-11T05:59:45.258Z,6.85
2022-12-11T06:02:35.127Z,6.88
2022-12-11T06:05:21.934Z,6.20
2022-12-11T06:08:09.084Z,6.95
2022-12-11T06:10:57.483Z,7.45
2022-12-11T06:13:44.311Z,6.63
2022-12-11T06:16:31.969Z,7.78
2022-12-11T06:19:24.861Z,6.90
2022-12-11T06:22:14.484Z,7.47
2022-12-11T06:25:03.242Z,6.97
2022-12-11T06:27:50.422Z,6.40
2022-12-11T06:30:39.482Z,7.53
2022-12-11T06:36:17.693Z,7.30
2022-12-11T06:39:04.679Z,7.30
2022-12-11T06:41:51.467Z,7.22
2022-12-11T06:44:40.845Z,7.63
2022-12-11T06:50:17.341Z,7.38
2022-12-11T06:53:04.199Z,7.50
2022-12-11T06:55:50.991Z,6.88
2022-12-11T06:58:44.322Z,6.97
2022-12-11T07:01:31.209Z,7.25
2022-12-11T07:04:18.007Z,7.43
2022-12-11T07:07:05.010Z,7.28
2022-12-11T07:09:51.823Z,7.90
2022-12-11T07:12:41.668Z,8.35
2022-12-11T07:15:28.413Z,6.75
2022-12-11T07:18:15.187Z,6.93
2022-12-11T07:21:01.994Z,7.53
2022-12-11T07:23:50.029Z,7.40
2022-12-11T07:26:38.796Z,7.68
2022-12-11T07:29:25.559Z,7.32
2022-12-11T07:39:35.802Z,7.13
2022-12-11T07:51:31.021Z,6.93
2022-12-11T07:58:23.488Z,7.88
2022-12-11T08:01:33.302Z,7.80
2022-12-11T08:12:31.441Z,8.10
2022-12-11T08:19:46.253Z,7.93
2022-12-11T08:22:59.477Z,8.65
2022-12-11T08:47:56.273Z,8.15
2022-12-11T08:54:53.137Z,8.55
2022-12-11T09:05:06.673Z,8.07
2022-12-11T09:11:58.475Z,7.32
2022-12-11T09:16:09.598Z,7.00
2022-12-11T09:26:25.765Z,8.27
2022-12-11T09:37:28.501Z,8.80
2022-12-11T09:40:41.829Z,7.70
2022-12-11T09:47:23.075Z,8.23
2022-12-11T09:51:10.182Z,7.43
2022-12-11T09:58:10.368Z,7.65
2022-12-11T10:01:43.686Z,8.05
2022-12-11T10:05:18.705Z,8.30
2022-12-11T10:09:02.099Z,7.70
2022-12-11T10:12:00.589Z,7.05
2022-12-11T10:15:42.869Z,8.05
2022-12-11T10:25:36.429Z,7.18
2022-12-11T10:28:37.120Z,7.63
2022-12-11T10:42:33.004Z,7.18
2022-12-11T11:00:51.331Z,6.57
2022-12-11T11:08:00.442Z,6.93
2022-12-11T11:11:07.040Z,7.85
2022-12-11T11:14:20.438Z,7.15
2022-12-11T11:17:22.412Z,6.90
2022-12-11T11:23:34.363Z,7.03
2022-12-11T11:27:11.158Z,6.80
2022-12-11T11:30:15.142Z,6.97
2022-12-11T11:33:29.640Z,6.45
2022-12-11T11:36:35.848Z,6.45
2022-12-11T11:40:21.495Z,6.80
2022-12-11T11:47:58.496Z,7.57
2022-12-11T11:58:25.277Z,7.35
2022-12-11T12:01:50.441Z,6.05
2022-12-11T12:04:44.627Z,6.35
2022-12-11T12:07:44.451Z,6.00
2022-12-11T12:11:00.679Z,5.90
2022-12-11T12:14:12.841Z,6.28
2022-12-11T12:17:23.403Z,6.68
2022-12-11T12:20:26.266Z,6.35
2022-12-11T12:23:41.421Z,6.63
2022-12-11T12:26:28.399Z,6.07
2022-12-11T12:29:24.854Z,6.15
2022-12-11T12:32:28.376Z,6.00
2022-12-11T12:35:33.547Z,5.65
2022-12-11T12:38:48.674Z,5.80
2022-12-11T12:41:54.154Z,6.03
2022-12-11T12:44:53.935Z,5.85
2022-12-11T12:47:42.486Z,5.82
2022-12-11T12:50:38.724Z,5.80
2022-12-11T12:53:32.686Z,5.65
2022-12-11T12:56:20.980Z,5.47
2022-12-11T12:59:20.816Z,5.60
2022-12-11T13:02:14.139Z,5.80
2022-12-11T13:05:09.158Z,5.80
2022-12-11T13:07:58.347Z,6.20
2022-12-11T13:10:47.561Z,6.32
2022-12-11T13:13:54.495Z,5.63
2022-12-11T13:16:46.804Z,5.30
2022-12-11T13:19:42.295Z,6.03
2022-12-11T13:22:29.804Z,5.20
2022-12-11T13:25:31.429Z,5.50
2022-12-11T13:28:29.132Z,5.55
2022-12-11T13:31:15.989Z,6.25
2022-12-11T13:34:36.271Z,5.57
2022-12-11T13:37:41.877Z,5.35
2022-12-11T13:40:37.229Z,5.65
2022-12-11T13:43:29.786Z,5.32
2022-12-11T13:46:24.544Z,6.00
2022-12-11T13:49:30.668Z,5.80
2022-12-11T13:52:20.225Z,5.70
2022-12-11T13:55:23.628Z,5.93
2022-12-11T13:58:18.743Z,6.20
2022-12-11T14:01:16.260Z,6.38
2022-12-11T14:07:33.528Z,6.38
2022-12-11T14:10:31.175Z,6.68
2022-12-11T14:13:25.990Z,6.63
2022-12-11T14:16:22.620Z,6.32
2022-12-11T14:19:10.936Z,6.30
2022-12-11T14:28:48.429Z,7.15
2022-12-11T14:31:42.036Z,6.68
2022-12-11T14:34:35.274Z,7.38
2022-12-11T14:37:23.671Z,7.03
2022-12-11T14:40:18.670Z,7.23
2022-12-11T14:43:14.191Z,6.60
2022-12-11T14:46:09.315Z,7.60
2022-12-11T14:49:01.507Z,7.57
2022-12-11T14:51:51.270Z,6.72
2022-12-11T14:54:41.414Z,7.22
2022-12-11T14:57:29.552Z,6.75
2022-12-11T15:00:30.368Z,6.70
2022-12-11T15:03:19.274Z,6.93
2022-12-11T15:06:29.883Z,6.55
2022-12-11T15:09:19.490Z,6.25
2022-12-11T15:12:21.954Z,7.22
2022-12-11T15:15:15.266Z,7.15
2022-12-11T15:18:04.296Z,6.80
2022-12-11T15:20:53.335Z,6.63
2022-12-11T15:23:47.825Z,6.30
2022-12-11T15:26:41.329Z,6.32
2022-12-11T15:29:35.520Z,6.50
2022-12-11T15:32:22.875Z,5.93
2022-12-11T15:35:25.120Z,6.72
2022-12-11T15:38:28.331Z,6.55
2022-12-11T15:41:18.740Z,6.25
2022-12-11T15:44:05.760Z,6.20
2022-12-11T15:46:52.654Z,6.20
2022-12-11T15:49:39.458Z,6.63
2022-12-11T15:52:26.440Z,6.15
2022-12-11T15:55:13.916Z,6.53
2022-12-11T15:58:15.381Z,6.38
2022-12-11T16:01:02.512Z,6.40
2022-12-11T16:03:50.402Z,6.18
2022-12-11T16:06:37.986Z,6.50
2022-12-11T16:09:24.740Z,6.05
2022-12-11T16:12:13.382Z,6.82
2022-12-11T16:15:00.127Z,6.80
2022-12-11T16:17:46.969Z,6.13
2022-12-11T16:20:35.232Z,6.60
2022-12-11T16:23:24.221Z,7.22
2022-12-11T16:26:11.730Z,7.57
2022-12-11T16:28:58.599Z,7.20
2022-12-11T16:31:45.483Z,6.72
2022-12-11T16:34:32.404Z,7.35
2022-12-11T16:37:19.436Z,6.70
2022-12-11T16:40:06.716Z,6.97
2022-12-11T16:42:54.229Z,7.30
2022-12-11T16:45:43.077Z,8.02
2022-12-11T16:48:29.930Z,7.55
2022-12-11T16:51:17.204Z,7.20
2022-12-11T16:54:04.846Z,7.25
2022-12-11T16:56:54.379Z,6.97
2022-12-11T16:59:41.255Z,7.18
2022-12-11T17:02:28.176Z,6.68
2022-12-11T17:05:15.161Z,6.80
2022-12-11T17:08:05.487Z,6.97
2022-12-11T17:10:55.661Z,6.35
2022-12-11T17:13:44.565Z,6.95
2022-12-11T17:16:32.367Z,7.00
2022-12-11T17:19:22.134Z,6.57
2022-12-11T17:22:11.078Z,6.47
2022-12-11T17:24:58.093Z,7.00
2022-12-11T17:27:45.163Z,6.35
2022-12-11T17:30:32.049Z,6.68
2022-12-11T17:33:18.917Z,5.80
2022-12-11T17:36:07.129Z,5.78
2022-12-11T17:38:54.315Z,5.78
2022-12-11T17:41:46.610Z,5.88
2022-12-11T17:44:38.297Z,6.45
2022-12-11T17:47:25.269Z,6.18
2022-12-11T17:50:12.115Z,5.47
2022-12-11T17:52:59.129Z,6.32
2022-12-11T17:55:46.842Z,5.63
2022-12-11T17:58:39.548Z,5.93
2022-12-11T18:01:26.430Z,5.32
2022-12-11T18:04:13.555Z,5.13
2022-12-11T18:07:00.651Z,5.40
2022-12-11T18:09:47.783Z,4.72
2022-12-11T18:12:34.769Z,5.20
2022-12-11T18:15:21.685Z,5.70
2022-12-11T18:18:11.185Z,5.88
2022-12-11T18:20:58.785Z,5.50
2022-12-11T18:23:48.193Z,6.22
2022-12-11T18:26:36.059Z,5.50
2022-12-11T18:29:22.864Z,5.05
2022-12-11T18:32:10.111Z,5.00
2022-12-11T18:34:59.282Z,5.78
2022-12-11T18:37:48.591Z,5.15
2022-12-11T18:43:25.818Z,5.15
2022-12-11T18:46:17.553Z,4.95
2022-12-11T18:49:04.582Z,5.10
2022-12-11T18:51:52.757Z,5.50
2022-12-11T18:54:39.770Z,5.43
2022-12-11T18:57:26.858Z,5.13
2022-12-11T19:00:14.453Z,4.57
2022-12-11T19:03:02.038Z,4.80
2022-12-11T19:05:48.826Z,5.38
2022-12-11T19:08:36.071Z,5.45
2022-12-11T19:11:25.006Z,5.53
2022-12-11T19:14:14.445Z,5.82
2022-12-11T19:17:02.047Z,5.20
2022-12-11T19:19:49.184Z,5.43
2022-12-11T19:22:36.374Z,5.10
2022-12-11T19:25:26.410Z,5.00
2022-12-11T19:28:15.180Z,5.32
2022-12-11T19:31:08.284Z,5.55
2022-12-11T19:33:56.149Z,4.97
2022-12-11T19:36:44.589Z,5.30
2022-12-11T19:39:31.534Z,4.80
2022-12-11T19:42:29.018Z,4.97
2022-12-11T19:45:16.155Z,4.70
2022-12-11T19:48:04.671Z,4.90
2022-12-11T19:50:51.565Z,5.43
2022-12-11T19:53:41.334Z,4.97
2022-12-11T19:56:28.937Z,5.28
2022-12-11T19:59:16.910Z,4.45
2022-12-11T20:02:03.855Z,5.38
2022-12-11T20:04:50.837Z,5.22
2022-12-11T20:07:38.975Z,5.18
2022-12-11T20:10:27.321Z,4.70
2022-12-11T20:13:19.461Z,5.60
2022-12-11T20:16:10.032Z,5.30
2022-12-11T20:18:57.636Z,5.32
2022-12-11T20:21:44.672Z,5.53
2022-12-11T20:24:31.712Z,5.50
2022-12-11T20:27:21.069Z,4.80
2022-12-11T20:32:54.975Z,5.50
2022-12-11T20:35:42.662Z,5.15
2022-12-11T20:38:34.290Z,5.30
2022-12-11T20:41:24.034Z,4.75
2022-12-11T20:44:20.223Z,5.38
2022-12-11T20:47:07.356Z,5.22
2022-12-11T20:49:59.547Z,5.32
2022-12-11T20:52:46.495Z,5.50
2022-12-11T20:55:33.598Z,5.30
2022-12-11T20:58:21.067Z,5.32
2022-12-11T21:01:15.402Z,5.38
2022-12-11T21:04:02.460Z,5.18
2022-12-11T21:06:55.501Z,5.20
2022-12-11T21:09:42.579Z,6.15
2022-12-11T21:12:31.669Z,5.60
2022-12-11T21:18:06.402Z,5.88
2022-12-11T21:20:56.334Z,5.60
2022-12-11T21:23:43.236Z,5.90
2022-12-11T21:26:34.412Z,6.10
2022-12-11T21:29:22.544Z,6.10
2022-12-11T21:32:14.011Z,6.05
2022-12-11T21:35:01.085Z,5.55
2022-12-11T21:37:48.599Z,5.22
2022-12-11T21:40:35.926Z,5.75
2022-12-11T21:43:26.635Z,5.70
2022-12-11T21:46:15.300Z,5.53
2022-12-11T21:49:02.481Z,6.00
2022-12-11T21:51:49.455Z,5.75
2022-12-11T21:54:36.539Z,6.30
2022-12-11T21:57:26.576Z,6.00
2022-12-11T22:00:14.342Z,5.72
2022-12-11T22:03:01.319Z,5.90
2022-12-11T22:05:48.200Z,5.30
2022-12-11T22:08:35.066Z,6.00
2022-12-11T22:11:25.947Z,5.88
2022-12-11T22:14:15.076Z,5.68
2022-12-11T22:17:04.700Z,5.75
2022-12-11T22:19:54.483Z,5.10
2022-12-11T22:22:41.402Z,5.80
2022-12-11T22:25:29.273Z,5.85
2022-12-11T22:28:16.109Z,5.88
2022-12-11T22:31:05.510Z,5.93
2022-12-11T22:33:53.879Z,5.95
2022-12-11T22:36:40.744Z,5.80
2022-12-11T22:39:27.642Z,6.05
2022-12-11T22:42:14.486Z,6.43
2022-12-11T22:45:01.506Z,6.28
2022-12-11T22:47:48.562Z,5.95
2022-12-11T22:50:39.572Z,5.88
2022-12-11T22:53:26.368Z,6.30
2022-12-11T22:56:14.044Z,5.82
2022-12-11T22:59:01.090Z,6.00
2022-12-11T23:01:48.670Z,6.35
2022-12-11T23:04:35.470Z,6.07
2022-12-11T23:07:22.330Z,5.80
2022-12-11T23:10:09.846Z,5.72
2022-12-11T23:12:57.368Z,6.03
2022-12-11T23:15:44.184Z,6.20
2022-12-11T23:18:32.586Z,5.65
2022-12-11T23:21:20.043Z,5.97
2022-12-11T23:24:07.660Z,6.68
2022-12-11T23:26:54.569Z,5.97
2022-12-11T23:29:44.600Z,6.22
2022-12-11T23:32:31.624Z,6.68
2022-12-11T23:35:18.654Z,6.38
2022-12-11T23:38:08.016Z,6.13
2022-12-11T23:43:45.145Z,5.80
2022-12-11T23:46:32.820Z,5.85
2022-12-11T23:49:19.815Z,5.93
2022-12-11T23:52:07.077Z,6.18
2022-12-11T23:54:57.034Z,5.80
2022-12-11T23:57:58.870Z,5.63
